FranceFixed distance
D-Tour (Saint Denis par les Hauts) 60 km
22 Apr2023
Distance
60km
Finishers
555467 men88 women
Winning time
6:35:23h
Median pace
5.50km/h
Pace distribution
555 finishers · 3.73–9.11 km/h · mean 5.58
Every finisher ran the same 60 km course, so these paces are directly comparable.
Histogram of finisher pace. 555 finishers ranged from 3.73 to 9.11 kilometres per hour, with a mean of 5.58 and a median of 5.50. The busiest band is 5.0 to 5.5 kilometres per hour, with 114 finishers.
Results
Ranks 201–250 of 555
| Rank | Runner | Time | Pace | Cat. | Placing |
|---|---|---|---|---|---|
| 201 | Hubert, Bernard AlainFranceMan | 10:20:11h | 5.80 | M60 | 185th M · 1st M60 |
| 202 | Germain, CharlesFranceMan | 10:20:19h | 5.80 | M40 | 186th M · 34th M40 |
| 203 | Leray, AmelieFranceWoman | 10:20:20h | 5.80 | W23 | 17th F · 6th W23 |
| 204 | Timon, LilianeFranceWoman Espritrail | 10:20:35h | 5.80 | W45 | 18th F · 3rd W45 |
| 205 | Nonval, JacobFranceMan | 10:20:37h | 5.80 | M50 | 187th M · 14th M50 |
| 206 | Gauvin, DavidFranceMan Caposs | 10:21:50h | 5.79 | M35 | 188th M · 32nd M35 |
| 207 | Paquiry, PatriceFranceMan | 10:22:10h | 5.79 | M40 | 189th M · 35th M40 |
| 208 | Roques, ValentinFranceMan | 10:22:19h | 5.79 | M23 | 190th M · 65th M23 |
| 209 | Volders, ElineFranceWoman | 10:24:10h | 5.77 | W23 | 19th F · 7th W23 |
| 210 | Savreux, RudyFranceMan | 10:24:51h | 5.76 | M35 | 191st M · 33rd M35 |
| 211 | Goizet, RemiFranceMan | 10:24:53h | 5.76 | M35 | 192nd M · 34th M35 |
| 212 | Augustine, Jean-LucoFranceMan | 10:24:59h | 5.76 | M40 | 193rd M · 36th M40 |
| 213 | Nanguet, Jean-Michel AndreFranceMan | 10:25:40h | 5.75 | M60 | 194th M · 2nd M60 |
| 214 | Abriska, EricFranceMan | 10:26:14h | 5.75 | M50 | 195th M · 15th M50 |
| 215 | Baron, FabriceFranceMan | 10:26:28h | 5.75 | M50 | 196th M · 16th M50 |
| 216 | Belanger, MathiasFranceMan | 10:27:02h | 5.74 | M23 | 197th M · 66th M23 |
| 217 | Pogut, NicolasFranceMan | 10:27:16h | 5.74 | M40 | 198th M · 37th M40 |
| 218 | Gravina, FredericFranceMan C.A.S.S. | 10:27:23h | 5.74 | M40 | 199th M · 38th M40 |
| 219 | Labaille, JoaquimFranceMan | 10:27:29h | 5.74 | M45 | 200th M · 27th M45 |
| 220 | Ramin, Pierre-GirelFranceMan | 10:29:02h | 5.72 | M50 | 201st M · 17th M50 |
| 221 | Ibrahima Selemani, IsmaelFranceMan | 10:29:41h | 5.72 | M45 | 202nd M · 28th M45 |
| 222 | Aceldy, VincentFranceMan | 10:29:44h | 5.72 | M35 | 203rd M · 35th M35 |
| 223 | Payet, Jean-GaelFranceMan | 10:29:47h | 5.72 | M23 | 204th M · 67th M23 |
| 224 | Grebille, JulienFranceMan | 10:30:01h | 5.71 | M23 | 205th M · 68th M23 |
| 225 | Marinia Radia, MoiseFranceMan | 10:30:14h | 5.71 | M45 | 206th M · 29th M45 |
| 226 | Kodabuckus, RyadFranceMan | 10:31:02h | 5.71 | M23 | 207th M · 69th M23 |
| 227 | Louis, FredericFranceMan | 10:31:30h | 5.70 | M55 | 208th M · 15th M55 |
| 228 | Lacouture, NicolasFranceMan | 10:32:00h | 5.70 | M35 | 209th M · 36th M35 |
| 229 | Barbe, RemiFranceMan | 10:32:41h | 5.69 | M23 | 210th M · 70th M23 |
| 230 | Tibaldi, LaurianeFranceWoman | 10:32:42h | 5.69 | W23 | 20th F · 8th W23 |
| 231 | Abelard, AlvinFranceMan RDB | 10:34:11h | 5.68 | M23 | 211th M · 71st M23 |
| 232 | Drouet, SimonFranceMan | 10:34:12h | 5.68 | M35 | 212th M · 37th M35 |
| 233 | Pirson, CharlesFranceMan | 10:35:01h | 5.67 | M23 | 213th M · 72nd M23 |
| 234 | Martinez, SebastienFranceMan Caposs | 10:36:09h | 5.66 | M50 | 214th M · 18th M50 |
| 235 | Guillery, BrunoFranceMan | 10:36:25h | 5.66 | M35 | 215th M · 38th M35 |
| 236 | Houdin, YannFranceMan Caposs | 10:36:41h | 5.65 | M40 | 216th M · 39th M40 |
| 237 | Thomas, Jean-GinoFranceMan | 10:37:56h | 5.64 | M40 | 217th M · 40th M40 |
| 238 | Temple-Boyer, AbelFranceMan AC St-LEU | 10:38:20h | 5.64 | M45 | 218th M · 30th M45 |
| 239 | Verbard, TonyFranceMan | 10:39:01h | 5.63 | M40 | 219th M · 41st M40 |
| 240 | Malinga, RichelineFranceWoman Caposs | 10:39:50h | 5.63 | W40 | 21st F · 4th W40 |
| 241 | Dobaria, JonathanFranceMan | 10:39:52h | 5.63 | M40 | 220th M · 42nd M40 |
| 242 | Joharane, DidierFranceMan | 10:39:52h | 5.63 | M40 | 220th M · 42nd M40 |
| 243 | Pause, MagalieFranceWoman | 10:39:55h | 5.63 | W45 | 22nd F · 4th W45 |
| 244 | Lauret, Jeremy DavidFranceMan | 10:41:27h | 5.61 | M23 | 222nd M · 73rd M23 |
| 245 | Rocrou, LucianoFranceMan | 10:41:50h | 5.61 | M35 | 223rd M · 39th M35 |
| 246 | Marimoutou, Jean-LucFranceMan | 10:41:52h | 5.61 | M50 | 224th M · 19th M50 |
| 247 | Wannin, JeromeFranceMan | 10:42:00h | 5.61 | M40 | 225th M · 44th M40 |
| 248 | Puntous, DavidFranceMan | 10:42:00h | 5.61 | M35 | 225th M · 40th M35 |
| 249 | Vendomele, Loic Jean-RaphaelFranceMan | 10:42:40h | 5.60 | M23 | 227th M · 74th M23 |
| 250 | Defondaumiere, OlivierFranceMan | 10:42:41h | 5.60 | M23 | 228th M · 75th M23 |
- 201Hubert, Bernard AlainFranceMan185th M · 1st M60Time10:20:11hPace5.80Cat.M60
- 202Germain, CharlesFranceMan186th M · 34th M40Time10:20:19hPace5.80Cat.M40
- 203Leray, AmelieFranceWoman17th F · 6th W23Time10:20:20hPace5.80Cat.W23
- 204Timon, LilianeFranceWomanEspritrail18th F · 3rd W45Time10:20:35hPace5.80Cat.W45
- 205Nonval, JacobFranceMan187th M · 14th M50Time10:20:37hPace5.80Cat.M50
- 206Gauvin, DavidFranceManCaposs188th M · 32nd M35Time10:21:50hPace5.79Cat.M35
- 207Paquiry, PatriceFranceMan189th M · 35th M40Time10:22:10hPace5.79Cat.M40
- 208Roques, ValentinFranceMan190th M · 65th M23Time10:22:19hPace5.79Cat.M23
- 209Volders, ElineFranceWoman19th F · 7th W23Time10:24:10hPace5.77Cat.W23
- 210Savreux, RudyFranceMan191st M · 33rd M35Time10:24:51hPace5.76Cat.M35
- 211Goizet, RemiFranceMan192nd M · 34th M35Time10:24:53hPace5.76Cat.M35
- 212Augustine, Jean-LucoFranceMan193rd M · 36th M40Time10:24:59hPace5.76Cat.M40
- 213Nanguet, Jean-Michel AndreFranceMan194th M · 2nd M60Time10:25:40hPace5.75Cat.M60
- 214Abriska, EricFranceMan195th M · 15th M50Time10:26:14hPace5.75Cat.M50
- 215Baron, FabriceFranceMan196th M · 16th M50Time10:26:28hPace5.75Cat.M50
- 216Belanger, MathiasFranceMan197th M · 66th M23Time10:27:02hPace5.74Cat.M23
- 217Pogut, NicolasFranceMan198th M · 37th M40Time10:27:16hPace5.74Cat.M40
- 218Gravina, FredericFranceManC.A.S.S.199th M · 38th M40Time10:27:23hPace5.74Cat.M40
- 219Labaille, JoaquimFranceMan200th M · 27th M45Time10:27:29hPace5.74Cat.M45
- 220Ramin, Pierre-GirelFranceMan201st M · 17th M50Time10:29:02hPace5.72Cat.M50
- 221Ibrahima Selemani, IsmaelFranceMan202nd M · 28th M45Time10:29:41hPace5.72Cat.M45
- 222Aceldy, VincentFranceMan203rd M · 35th M35Time10:29:44hPace5.72Cat.M35
- 223Payet, Jean-GaelFranceMan204th M · 67th M23Time10:29:47hPace5.72Cat.M23
- 224Grebille, JulienFranceMan205th M · 68th M23Time10:30:01hPace5.71Cat.M23
- 225Marinia Radia, MoiseFranceMan206th M · 29th M45Time10:30:14hPace5.71Cat.M45
- 226Kodabuckus, RyadFranceMan207th M · 69th M23Time10:31:02hPace5.71Cat.M23
- 227Louis, FredericFranceMan208th M · 15th M55Time10:31:30hPace5.70Cat.M55
- 228Lacouture, NicolasFranceMan209th M · 36th M35Time10:32:00hPace5.70Cat.M35
- 229Barbe, RemiFranceMan210th M · 70th M23Time10:32:41hPace5.69Cat.M23
- 230Tibaldi, LaurianeFranceWoman20th F · 8th W23Time10:32:42hPace5.69Cat.W23
- 231Abelard, AlvinFranceManRDB211th M · 71st M23Time10:34:11hPace5.68Cat.M23
- 232Drouet, SimonFranceMan212th M · 37th M35Time10:34:12hPace5.68Cat.M35
- 233Pirson, CharlesFranceMan213th M · 72nd M23Time10:35:01hPace5.67Cat.M23
- 234Martinez, SebastienFranceManCaposs214th M · 18th M50Time10:36:09hPace5.66Cat.M50
- 235Guillery, BrunoFranceMan215th M · 38th M35Time10:36:25hPace5.66Cat.M35
- 236Houdin, YannFranceManCaposs216th M · 39th M40Time10:36:41hPace5.65Cat.M40
- 237Thomas, Jean-GinoFranceMan217th M · 40th M40Time10:37:56hPace5.64Cat.M40
- 238Temple-Boyer, AbelFranceManAC St-LEU218th M · 30th M45Time10:38:20hPace5.64Cat.M45
- 239Verbard, TonyFranceMan219th M · 41st M40Time10:39:01hPace5.63Cat.M40
- 240Malinga, RichelineFranceWomanCaposs21st F · 4th W40Time10:39:50hPace5.63Cat.W40
- 241Dobaria, JonathanFranceMan220th M · 42nd M40Time10:39:52hPace5.63Cat.M40
- 242Joharane, DidierFranceMan220th M · 42nd M40Time10:39:52hPace5.63Cat.M40
- 243Pause, MagalieFranceWoman22nd F · 4th W45Time10:39:55hPace5.63Cat.W45
- 244Lauret, Jeremy DavidFranceMan222nd M · 73rd M23Time10:41:27hPace5.61Cat.M23
- 245Rocrou, LucianoFranceMan223rd M · 39th M35Time10:41:50hPace5.61Cat.M35
- 246Marimoutou, Jean-LucFranceMan224th M · 19th M50Time10:41:52hPace5.61Cat.M50
- 247Wannin, JeromeFranceMan225th M · 44th M40Time10:42:00hPace5.61Cat.M40
- 248Puntous, DavidFranceMan225th M · 40th M35Time10:42:00hPace5.61Cat.M35
- 249Vendomele, Loic Jean-RaphaelFranceMan227th M · 74th M23Time10:42:40hPace5.60Cat.M23
- 250Defondaumiere, OlivierFranceMan228th M · 75th M23Time10:42:41hPace5.60Cat.M23
Showing ranks 201–250 of 555